TimeMDT,TemperatureF,Dew PointF,Humidity,Sea Level PressureIn,VisibilityMPH,Wind Direction,Wind SpeedMPH,Gust SpeedMPH,PrecipitationIn,Events,Conditions,WindDirDegrees,DateUTC
12:37 AM,64.4,53.6,68,30.03,10.0,South,8.1,24.2,0.00,,Scattered Clouds,190,2013-06-13 06:37:00
12:53 AM,64.0,54.0,70,29.95,10.0,SSE,17.3,-,0.00,Rain,Light Rain,150,2013-06-13 06:53:00
1:53 AM,63.0,54.0,72,29.95,10.0,SE,17.3,-,0.00,,Clear,130,2013-06-13 07:53:00
2:53 AM,63.0,55.0,75,29.93,10.0,SSE,23.0,28.8,N/A,,Clear,160,2013-06-13 08:53:00
3:53 AM,63.0,55.0,75,29.93,10.0,SSE,19.6,26.5,0.00,Rain,Light Rain,160,2013-06-13 09:53:00
4:53 AM,61.0,54.0,78,29.89,10.0,SSE,17.3,26.5,0.00,,Partly Cloudy,160,2013-06-13 10:53:00
5:53 AM,61.0,53.1,75,29.91,10.0,SSE,16.1,23.0,N/A,,Clear,150,2013-06-13 11:53:00
6:53 AM,62.1,54.0,75,29.91,10.0,SSE,16.1,23.0,N/A,,Clear,150,2013-06-13 12:53:00
7:53 AM,64.0,54.0,70,29.90,10.0,SE,16.1,-,N/A,,Clear,140,2013-06-13 13:53:00
8:53 AM,66.9,54.0,63,29.89,10.0,SSE,13.8,28.8,N/A,,Clear,150,2013-06-13 14:53:00
9:53 AM,69.1,53.1,57,29.86,10.0,SSE,21.9,27.6,N/A,,Clear,160,2013-06-13 15:53:00
10:53 AM,73.0,53.1,49,29.84,10.0,SSE,20.7,31.1,N/A,,Clear,150,2013-06-13 16:53:00
11:53 AM,73.9,54.0,50,29.82,10.0,SSE,17.3,27.6,N/A,,Clear,150,2013-06-13 17:53:00
12:53 PM,75.9,55.9,50,29.80,10.0,SSE,16.1,24.2,N/A,,Clear,150,2013-06-13 18:53:00
1:53 PM,77.0,57.9,52,29.83,10.0,South,15.0,19.6,N/A,,Clear,180,2013-06-13 19:53:00
2:53 PM,78.1,57.9,50,29.83,10.0,Variable,3.5,-,N/A,,Clear,0,2013-06-13 20:53:00
3:53 PM,77.0,57.9,52,29.80,10.0,NNE,9.2,-,N/A,,Clear,20,2013-06-13 21:53:00
4:53 PM,78.1,57.9,50,29.77,10.0,East,11.5,-,N/A,,Clear,80,2013-06-13 22:53:00
5:53 PM,79.0,59.0,50,29.77,10.0,East,11.5,-,N/A,,Clear,90,2013-06-13 23:53:00
6:53 PM,78.1,59.0,52,29.71,10.0,SE,9.2,-,N/A,,Clear,130,2013-06-14 00:53:00
7:53 PM,73.9,60.1,62,29.71,10.0,East,8.1,-,N/A,,Clear,80,2013-06-14 01:53:00
8:53 PM,71.1,60.1,68,29.74,10.0,SE,6.9,-,N/A,,Clear,140,2013-06-14 02:53:00
9:17 PM,71.6,60.8,69,29.87,10.0,SSW,15.0,20.7,N/A,,Scattered Clouds,210,2013-06-14 03:17:00
9:53 PM,68.0,61.0,78,29.79,10.0,SW,5.8,-,0.00,Rain,Light Rain,230,2013-06-14 03:53:00
10:53 PM,66.9,59.0,76,29.70,10.0,East,11.5,-,0.00,,Clear,100,2013-06-14 04:53:00
11:53 PM,66.9,57.9,73,29.66,10.0,East,6.9,-,N/A,,Clear,100,2013-06-14 05:53:00